sensor_id;sensor_type;location;lat;lon;timestamp;P1;durP1;ratioP1;P2;durP2;ratioP2
39188;SDS011;24915;50.858;4.376;2023-04-25T00:00:26;29.30;;;6.82;;
39188;SDS011;24915;50.858;4.376;2023-04-25T00:02:52;28.17;;;5.60;;
39188;SDS011;24915;50.858;4.376;2023-04-25T00:05:18;22.55;;;5.90;;
39188;SDS011;24915;50.858;4.376;2023-04-25T00:07:44;18.88;;;6.03;;
39188;SDS011;24915;50.858;4.376;2023-04-25T00:10:11;21.55;;;5.55;;
39188;SDS011;24915;50.858;4.376;2023-04-25T00:12:37;27.88;;;6.10;;
39188;SDS011;24915;50.858;4.376;2023-04-25T00:15:04;20.73;;;5.25;;
39188;SDS011;24915;50.858;4.376;2023-04-25T00:17:30;23.10;;;5.78;;
39188;SDS011;24915;50.858;4.376;2023-04-25T00:19:56;20.40;;;4.90;;
39188;SDS011;24915;50.858;4.376;2023-04-25T00:22:23;25.85;;;5.35;;
39188;SDS011;24915;50.858;4.376;2023-04-25T00:24:49;24.83;;;6.22;;
39188;SDS011;24915;50.858;4.376;2023-04-25T00:27:15;28.60;;;5.97;;
39188;SDS011;24915;50.858;4.376;2023-04-25T00:29:41;24.75;;;5.18;;
39188;SDS011;24915;50.858;4.376;2023-04-25T00:32:07;20.95;;;5.57;;
39188;SDS011;24915;50.858;4.376;2023-04-25T00:34:33;22.38;;;5.38;;
39188;SDS011;24915;50.858;4.376;2023-04-25T00:36:59;22.50;;;5.30;;
39188;SDS011;24915;50.858;4.376;2023-04-25T00:39:27;25.95;;;5.63;;
39188;SDS011;24915;50.858;4.376;2023-04-25T00:41:53;25.50;;;5.40;;
39188;SDS011;24915;50.858;4.376;2023-04-25T00:44:20;20.35;;;5.63;;
39188;SDS011;24915;50.858;4.376;2023-04-25T00:46:47;24.20;;;6.00;;
39188;SDS011;24915;50.858;4.376;2023-04-25T00:49:14;22.83;;;5.78;;
39188;SDS011;24915;50.858;4.376;2023-04-25T00:51:42;28.73;;;5.47;;
39188;SDS011;24915;50.858;4.376;2023-04-25T00:54:10;22.60;;;5.38;;
39188;SDS011;24915;50.858;4.376;2023-04-25T00:56:36;33.47;;;6.22;;
39188;SDS011;24915;50.858;4.376;2023-04-25T00:59:02;21.63;;;5.57;;
39188;SDS011;24915;50.858;4.376;2023-04-25T01:01:29;26.13;;;6.43;;
39188;SDS011;24915;50.858;4.376;2023-04-25T01:03:56;25.75;;;6.60;;
39188;SDS011;24915;50.858;4.376;2023-04-25T01:06:23;25.85;;;5.80;;
39188;SDS011;24915;50.858;4.376;2023-04-25T01:08:49;20.80;;;5.68;;
39188;SDS011;24915;50.858;4.376;2023-04-25T01:11:16;31.15;;;6.38;;
39188;SDS011;24915;50.858;4.376;2023-04-25T01:13:42;30.80;;;6.25;;
39188;SDS011;24915;50.858;4.376;2023-04-25T01:16:08;33.13;;;6.63;;
39188;SDS011;24915;50.858;4.376;2023-04-25T01:18:34;30.45;;;6.75;;
39188;SDS011;24915;50.858;4.376;2023-04-25T01:21:07;30.88;;;6.68;;
39188;SDS011;24915;50.858;4.376;2023-04-25T01:23:34;29.90;;;6.65;;
39188;SDS011;24915;50.858;4.376;2023-04-25T01:26:00;20.88;;;6.18;;
39188;SDS011;24915;50.858;4.376;2023-04-25T01:28:27;21.00;;;5.57;;
39188;SDS011;24915;50.858;4.376;2023-04-25T01:30:53;29.80;;;6.28;;
39188;SDS011;24915;50.858;4.376;2023-04-25T01:33:19;29.30;;;6.50;;
39188;SDS011;24915;50.858;4.376;2023-04-25T01:35:46;21.30;;;6.13;;
39188;SDS011;24915;50.858;4.376;2023-04-25T01:38:13;26.98;;;6.32;;
39188;SDS011;24915;50.858;4.376;2023-04-25T01:40:40;26.10;;;6.50;;
39188;SDS011;24915;50.858;4.376;2023-04-25T01:43:07;25.02;;;5.45;;
39188;SDS011;24915;50.858;4.376;2023-04-25T01:45:36;31.15;;;6.35;;
39188;SDS011;24915;50.858;4.376;2023-04-25T01:48:04;27.10;;;7.30;;
39188;SDS011;24915;50.858;4.376;2023-04-25T01:50:30;23.92;;;6.20;;
39188;SDS011;24915;50.858;4.376;2023-04-25T01:52:56;19.95;;;5.60;;
39188;SDS011;24915;50.858;4.376;2023-04-25T01:55:23;22.35;;;5.90;;
39188;SDS011;24915;50.858;4.376;2023-04-25T01:57:49;31.73;;;6.47;;
39188;SDS011;24915;50.858;4.376;2023-04-25T02:00:15;21.00;;;5.53;;
39188;SDS011;24915;50.858;4.376;2023-04-25T02:02:41;22.90;;;5.70;;
39188;SDS011;24915;50.858;4.376;2023-04-25T02:05:07;28.63;;;6.38;;
39188;SDS011;24915;50.858;4.376;2023-04-25T02:07:33;25.30;;;6.45;;
39188;SDS011;24915;50.858;4.376;2023-04-25T02:09:59;29.88;;;6.45;;
39188;SDS011;24915;50.858;4.376;2023-04-25T02:12:26;25.50;;;5.90;;
39188;SDS011;24915;50.858;4.376;2023-04-25T02:14:52;25.15;;;5.93;;
39188;SDS011;24915;50.858;4.376;2023-04-25T02:17:18;32.60;;;6.13;;
39188;SDS011;24915;50.858;4.376;2023-04-25T02:19:46;25.45;;;6.70;;
39188;SDS011;24915;50.858;4.376;2023-04-25T02:22:12;21.98;;;5.93;;
39188;SDS011;24915;50.858;4.376;2023-04-25T02:24:38;21.75;;;5.75;;
39188;SDS011;24915;50.858;4.376;2023-04-25T02:27:04;32.05;;;6.43;;
39188;SDS011;24915;50.858;4.376;2023-04-25T02:29:31;36.00;;;6.43;;
39188;SDS011;24915;50.858;4.376;2023-04-25T02:31:57;26.08;;;6.50;;
39188;SDS011;24915;50.858;4.376;2023-04-25T02:34:23;29.13;;;6.38;;
39188;SDS011;24915;50.858;4.376;2023-04-25T02:36:49;31.60;;;6.78;;
39188;SDS011;24915;50.858;4.376;2023-04-25T02:39:18;22.45;;;6.03;;
39188;SDS011;24915;50.858;4.376;2023-04-25T02:41:44;24.67;;;5.72;;
39188;SDS011;24915;50.858;4.376;2023-04-25T02:44:11;20.23;;;5.90;;
39188;SDS011;24915;50.858;4.376;2023-04-25T02:46:37;26.27;;;6.07;;
39188;SDS011;24915;50.858;4.376;2023-04-25T02:49:03;29.88;;;6.53;;
39188;SDS011;24915;50.858;4.376;2023-04-25T02:51:30;25.77;;;6.13;;
39188;SDS011;24915;50.858;4.376;2023-04-25T02:53:56;28.38;;;7.60;;
39188;SDS011;24915;50.858;4.376;2023-04-25T02:56:22;31.50;;;6.50;;
39188;SDS011;24915;50.858;4.376;2023-04-25T02:58:48;34.47;;;6.93;;
39188;SDS011;24915;50.858;4.376;2023-04-25T03:01:14;25.85;;;6.40;;
39188;SDS011;24915;50.858;4.376;2023-04-25T03:03:40;25.83;;;5.80;;
39188;SDS011;24915;50.858;4.376;2023-04-25T03:06:06;32.90;;;6.57;;
39188;SDS011;24915;50.858;4.376;2023-04-25T03:08:32;23.67;;;6.63;;
39188;SDS011;24915;50.858;4.376;2023-04-25T03:10:59;24.70;;;6.20;;
39188;SDS011;24915;50.858;4.376;2023-04-25T03:13:25;21.42;;;5.93;;
39188;SDS011;24915;50.858;4.376;2023-04-25T03:15:52;27.23;;;6.47;;
39188;SDS011;24915;50.858;4.376;2023-04-25T03:18:18;23.52;;;6.00;;
39188;SDS011;24915;50.858;4.376;2023-04-25T03:20:44;23.27;;;5.63;;
39188;SDS011;24915;50.858;4.376;2023-04-25T03:23:11;35.90;;;6.28;;
39188;SDS011;24915;50.858;4.376;2023-04-25T03:25:37;27.10;;;6.63;;
39188;SDS011;24915;50.858;4.376;2023-04-25T03:28:03;21.83;;;5.63;;
39188;SDS011;24915;50.858;4.376;2023-04-25T03:30:29;23.95;;;6.22;;
39188;SDS011;24915;50.858;4.376;2023-04-25T03:32:55;23.98;;;6.88;;
39188;SDS011;24915;50.858;4.376;2023-04-25T03:35:21;30.60;;;6.45;;
39188;SDS011;24915;50.858;4.376;2023-04-25T03:37:48;28.98;;;6.47;;
39188;SDS011;24915;50.858;4.376;2023-04-25T03:40:14;24.40;;;6.18;;
39188;SDS011;24915;50.858;4.376;2023-04-25T03:42:41;24.30;;;6.03;;
39188;SDS011;24915;50.858;4.376;2023-04-25T03:45:07;20.83;;;6.38;;
39188;SDS011;24915;50.858;4.376;2023-04-25T03:47:33;22.05;;;5.63;;
39188;SDS011;24915;50.858;4.376;2023-04-25T03:49:59;34.15;;;7.35;;
39188;SDS011;24915;50.858;4.376;2023-04-25T03:52:26;27.25;;;6.18;;
39188;SDS011;24915;50.858;4.376;2023-04-25T03:54:52;25.33;;;6.20;;
39188;SDS011;24915;50.858;4.376;2023-04-25T03:57:18;23.67;;;5.32;;
39188;SDS011;24915;50.858;4.376;2023-04-25T03:59:44;30.10;;;6.22;;
39188;SDS011;24915;50.858;4.376;2023-04-25T04:02:11;37.30;;;6.20;;
39188;SDS011;24915;50.858;4.376;2023-04-25T04:04:37;41.60;;;6.72;;
39188;SDS011;24915;50.858;4.376;2023-04-25T04:07:03;29.25;;;6.15;;
39188;SDS011;24915;50.858;4.376;2023-04-25T04:09:29;30.42;;;6.30;;
39188;SDS011;24915;50.858;4.376;2023-04-25T04:11:55;25.88;;;6.35;;
39188;SDS011;24915;50.858;4.376;2023-04-25T04:14:21;21.52;;;5.43;;
39188;SDS011;24915;50.858;4.376;2023-04-25T04:16:47;34.35;;;6.43;;
39188;SDS011;24915;50.858;4.376;2023-04-25T04:19:14;30.98;;;6.20;;
39188;SDS011;24915;50.858;4.376;2023-04-25T04:21:40;27.90;;;6.38;;
39188;SDS011;24915;50.858;4.376;2023-04-25T04:24:06;31.10;;;6.25;;
39188;SDS011;24915;50.858;4.376;2023-04-25T04:26:32;22.13;;;5.88;;
39188;SDS011;24915;50.858;4.376;2023-04-25T04:28:59;29.65;;;7.13;;
39188;SDS011;24915;50.858;4.376;2023-04-25T04:31:25;26.63;;;6.35;;
39188;SDS011;24915;50.858;4.376;2023-04-25T04:33:51;26.77;;;6.65;;
39188;SDS011;24915;50.858;4.376;2023-04-25T04:36:17;19.52;;;5.88;;
39188;SDS011;24915;50.858;4.376;2023-04-25T04:38:48;26.67;;;6.32;;
39188;SDS011;24915;50.858;4.376;2023-04-25T04:41:14;26.83;;;6.13;;
39188;SDS011;24915;50.858;4.376;2023-04-25T04:43:40;25.30;;;5.88;;
39188;SDS011;24915;50.858;4.376;2023-04-25T04:46:06;31.15;;;7.03;;
39188;SDS011;24915;50.858;4.376;2023-04-25T04:48:35;26.95;;;6.10;;
39188;SDS011;24915;50.858;4.376;2023-04-25T04:51:01;26.75;;;6.43;;
39188;SDS011;24915;50.858;4.376;2023-04-25T04:53:27;27.75;;;6.47;;
39188;SDS011;24915;50.858;4.376;2023-04-25T04:55:53;24.40;;;5.93;;
39188;SDS011;24915;50.858;4.376;2023-04-25T04:58:19;23.83;;;7.75;;
39188;SDS011;24915;50.858;4.376;2023-04-25T05:00:46;29.50;;;7.05;;
39188;SDS011;24915;50.858;4.376;2023-04-25T05:03:12;26.55;;;6.55;;
39188;SDS011;24915;50.858;4.376;2023-04-25T05:05:38;18.10;;;5.07;;
39188;SDS011;24915;50.858;4.376;2023-04-25T05:08:07;20.60;;;5.00;;
39188;SDS011;24915;50.858;4.376;2023-04-25T05:10:34;20.58;;;5.78;;
39188;SDS011;24915;50.858;4.376;2023-04-25T05:13:00;32.50;;;5.30;;
39188;SDS011;24915;50.858;4.376;2023-04-25T05:15:26;21.88;;;6.38;;
39188;SDS011;24915;50.858;4.376;2023-04-25T05:17:52;21.25;;;6.05;;
39188;SDS011;24915;50.858;4.376;2023-04-25T05:20:18;23.55;;;6.13;;
39188;SDS011;24915;50.858;4.376;2023-04-25T05:22:44;21.60;;;5.88;;
39188;SDS011;24915;50.858;4.376;2023-04-25T05:25:11;25.65;;;6.88;;
39188;SDS011;24915;50.858;4.376;2023-04-25T05:27:37;26.23;;;8.18;;
39188;SDS011;24915;50.858;4.376;2023-04-25T05:30:03;20.05;;;6.25;;
39188;SDS011;24915;50.858;4.376;2023-04-25T05:32:30;24.52;;;7.72;;
39188;SDS011;24915;50.858;4.376;2023-04-25T05:34:56;25.88;;;6.80;;
39188;SDS011;24915;50.858;4.376;2023-04-25T05:37:22;16.10;;;5.10;;
39188;SDS011;24915;50.858;4.376;2023-04-25T05:39:48;28.08;;;5.47;;
39188;SDS011;24915;50.858;4.376;2023-04-25T05:42:14;26.83;;;5.15;;
39188;SDS011;24915;50.858;4.376;2023-04-25T05:44:40;29.98;;;6.30;;
39188;SDS011;24915;50.858;4.376;2023-04-25T05:47:06;31.70;;;6.18;;
39188;SDS011;24915;50.858;4.376;2023-04-25T05:49:33;17.70;;;5.32;;
39188;SDS011;24915;50.858;4.376;2023-04-25T05:51:59;21.92;;;5.40;;
39188;SDS011;24915;50.858;4.376;2023-04-25T05:54:25;29.92;;;6.85;;
39188;SDS011;24915;50.858;4.376;2023-04-25T05:56:51;30.42;;;6.35;;
39188;SDS011;24915;50.858;4.376;2023-04-25T05:59:17;22.00;;;6.55;;
39188;SDS011;24915;50.858;4.376;2023-04-25T06:01:43;24.83;;;6.13;;
39188;SDS011;24915;50.858;4.376;2023-04-25T06:04:09;20.25;;;5.85;;
39188;SDS011;24915;50.858;4.376;2023-04-25T06:06:35;25.48;;;7.70;;
39188;SDS011;24915;50.858;4.376;2023-04-25T06:09:01;27.17;;;6.47;;
39188;SDS011;24915;50.858;4.376;2023-04-25T06:11:27;29.92;;;6.47;;
39188;SDS011;24915;50.858;4.376;2023-04-25T06:13:53;25.23;;;6.78;;
39188;SDS011;24915;50.858;4.376;2023-04-25T06:16:20;34.08;;;7.57;;
39188;SDS011;24915;50.858;4.376;2023-04-25T06:18:46;35.72;;;7.68;;
39188;SDS011;24915;50.858;4.376;2023-04-25T06:21:12;25.40;;;7.32;;
39188;SDS011;24915;50.858;4.376;2023-04-25T06:23:38;33.17;;;8.15;;
39188;SDS011;24915;50.858;4.376;2023-04-25T06:26:04;38.85;;;8.63;;
39188;SDS011;24915;50.858;4.376;2023-04-25T06:28:30;25.45;;;6.88;;
39188;SDS011;24915;50.858;4.376;2023-04-25T06:30:56;28.45;;;7.82;;
39188;SDS011;24915;50.858;4.376;2023-04-25T06:33:22;26.90;;;7.00;;
39188;SDS011;24915;50.858;4.376;2023-04-25T06:35:49;18.50;;;6.75;;
39188;SDS011;24915;50.858;4.376;2023-04-25T06:38:15;20.65;;;6.85;;
39188;SDS011;24915;50.858;4.376;2023-04-25T06:40:41;19.73;;;6.32;;
39188;SDS011;24915;50.858;4.376;2023-04-25T06:43:07;26.13;;;6.32;;
39188;SDS011;24915;50.858;4.376;2023-04-25T06:45:33;27.27;;;6.05;;
39188;SDS011;24915;50.858;4.376;2023-04-25T06:47:59;21.17;;;6.35;;
39188;SDS011;24915;50.858;4.376;2023-04-25T06:50:25;28.25;;;5.95;;
39188;SDS011;24915;50.858;4.376;2023-04-25T06:52:51;26.88;;;5.55;;
39188;SDS011;24915;50.858;4.376;2023-04-25T06:55:17;27.42;;;5.78;;
39188;SDS011;24915;50.858;4.376;2023-04-25T06:57:43;23.73;;;5.38;;
39188;SDS011;24915;50.858;4.376;2023-04-25T07:00:10;28.77;;;6.57;;
39188;SDS011;24915;50.858;4.376;2023-04-25T07:02:36;23.10;;;5.50;;
39188;SDS011;24915;50.858;4.376;2023-04-25T07:05:03;27.33;;;5.55;;
39188;SDS011;24915;50.858;4.376;2023-04-25T07:07:29;17.25;;;4.72;;
39188;SDS011;24915;50.858;4.376;2023-04-25T07:09:56;16.75;;;4.68;;
39188;SDS011;24915;50.858;4.376;2023-04-25T07:12:22;23.45;;;4.80;;
39188;SDS011;24915;50.858;4.376;2023-04-25T07:14:48;17.20;;;4.60;;
39188;SDS011;24915;50.858;4.376;2023-04-25T07:17:14;19.02;;;4.70;;
39188;SDS011;24915;50.858;4.376;2023-04-25T07:19:43;25.65;;;4.60;;
39188;SDS011;24915;50.858;4.376;2023-04-25T07:22:10;25.98;;;4.57;;
39188;SDS011;24915;50.858;4.376;2023-04-25T07:24:36;18.38;;;4.93;;
39188;SDS011;24915;50.858;4.376;2023-04-25T07:27:02;15.88;;;4.45;;
39188;SDS011;24915;50.858;4.376;2023-04-25T07:29:28;18.23;;;4.28;;
39188;SDS011;24915;50.858;4.376;2023-04-25T07:31:56;12.68;;;4.25;;
39188;SDS011;24915;50.858;4.376;2023-04-25T07:34:22;19.55;;;4.07;;
39188;SDS011;24915;50.858;4.376;2023-04-25T07:36:48;19.00;;;4.30;;
39188;SDS011;24915;50.858;4.376;2023-04-25T07:39:14;17.08;;;4.82;;
39188;SDS011;24915;50.858;4.376;2023-04-25T07:41:40;21.75;;;4.60;;
39188;SDS011;24915;50.858;4.376;2023-04-25T07:44:06;19.85;;;4.57;;
39188;SDS011;24915;50.858;4.376;2023-04-25T07:46:32;21.15;;;4.40;;
39188;SDS011;24915;50.858;4.376;2023-04-25T07:48:58;18.10;;;4.90;;
39188;SDS011;24915;50.858;4.376;2023-04-25T07:51:24;15.60;;;4.72;;
39188;SDS011;24915;50.858;4.376;2023-04-25T07:53:50;20.00;;;4.50;;
39188;SDS011;24915;50.858;4.376;2023-04-25T07:56:17;14.50;;;4.05;;
39188;SDS011;24915;50.858;4.376;2023-04-25T07:58:43;22.13;;;5.07;;
39188;SDS011;24915;50.858;4.376;2023-04-25T08:01:09;19.48;;;4.47;;
39188;SDS011;24915;50.858;4.376;2023-04-25T08:03:35;15.73;;;4.30;;
39188;SDS011;24915;50.858;4.376;2023-04-25T08:06:01;16.17;;;3.65;;
39188;SDS011;24915;50.858;4.376;2023-04-25T08:08:27;12.13;;;3.40;;
39188;SDS011;24915;50.858;4.376;2023-04-25T08:10:53;16.52;;;4.35;;
39188;SDS011;24915;50.858;4.376;2023-04-25T08:13:19;19.75;;;3.80;;
39188;SDS011;24915;50.858;4.376;2023-04-25T08:15:45;16.38;;;4.18;;
39188;SDS011;24915;50.858;4.376;2023-04-25T08:18:11;18.52;;;3.72;;
39188;SDS011;24915;50.858;4.376;2023-04-25T08:20:37;11.85;;;3.58;;
39188;SDS011;24915;50.858;4.376;2023-04-25T08:23:03;19.80;;;3.95;;
39188;SDS011;24915;50.858;4.376;2023-04-25T08:25:30;17.08;;;3.85;;
39188;SDS011;24915;50.858;4.376;2023-04-25T08:27:56;14.00;;;3.70;;
39188;SDS011;24915;50.858;4.376;2023-04-25T08:30:24;15.27;;;3.47;;
39188;SDS011;24915;50.858;4.376;2023-04-25T08:32:50;15.38;;;4.00;;
39188;SDS011;24915;50.858;4.376;2023-04-25T08:35:16;15.07;;;3.78;;
39188;SDS011;24915;50.858;4.376;2023-04-25T08:37:42;9.75;;;3.13;;
39188;SDS011;24915;50.858;4.376;2023-04-25T08:40:09;10.20;;;3.17;;
39188;SDS011;24915;50.858;4.376;2023-04-25T08:42:37;11.77;;;3.20;;
39188;SDS011;24915;50.858;4.376;2023-04-25T08:45:03;18.23;;;4.30;;
39188;SDS011;24915;50.858;4.376;2023-04-25T08:47:30;23.10;;;5.45;;
39188;SDS011;24915;50.858;4.376;2023-04-25T08:49:59;25.27;;;12.30;;
39188;SDS011;24915;50.858;4.376;2023-04-25T08:52:27;20.80;;;5.13;;
39188;SDS011;24915;50.858;4.376;2023-04-25T08:54:53;15.50;;;5.57;;
39188;SDS011;24915;50.858;4.376;2023-04-25T08:57:20;19.02;;;5.03;;
39188;SDS011;24915;50.858;4.376;2023-04-25T08:59:46;19.08;;;4.18;;
39188;SDS011;24915;50.858;4.376;2023-04-25T09:02:13;14.63;;;3.65;;
39188;SDS011;24915;50.858;4.376;2023-04-25T09:04:44;11.70;;;3.75;;
39188;SDS011;24915;50.858;4.376;2023-04-25T09:07:10;13.10;;;3.45;;
39188;SDS011;24915;50.858;4.376;2023-04-25T09:09:36;14.57;;;4.00;;
39188;SDS011;24915;50.858;4.376;2023-04-25T09:12:02;14.40;;;3.47;;
39188;SDS011;24915;50.858;4.376;2023-04-25T09:14:28;11.38;;;2.92;;
39188;SDS011;24915;50.858;4.376;2023-04-25T09:19:28;15.27;;;4.00;;
39188;SDS011;24915;50.858;4.376;2023-04-25T09:21:55;17.38;;;3.15;;
39188;SDS011;24915;50.858;4.376;2023-04-25T09:27:00;11.18;;;3.42;;
39188;SDS011;24915;50.858;4.376;2023-04-25T09:29:33;17.73;;;3.47;;
39188;SDS011;24915;50.858;4.376;2023-04-25T09:32:14;13.93;;;3.15;;
39188;SDS011;24915;50.858;4.376;2023-04-25T09:34:41;12.63;;;4.13;;
39188;SDS011;24915;50.858;4.376;2023-04-25T09:37:10;9.80;;;3.03;;
39188;SDS011;24915;50.858;4.376;2023-04-25T09:39:37;13.70;;;3.58;;
39188;SDS011;24915;50.858;4.376;2023-04-25T09:42:03;16.58;;;3.40;;
39188;SDS011;24915;50.858;4.376;2023-04-25T09:44:30;14.93;;;2.95;;
39188;SDS011;24915;50.858;4.376;2023-04-25T09:46:56;8.82;;;2.78;;
39188;SDS011;24915;50.858;4.376;2023-04-25T09:49:22;10.32;;;2.75;;
39188;SDS011;24915;50.858;4.376;2023-04-25T09:51:55;14.00;;;5.07;;
39188;SDS011;24915;50.858;4.376;2023-04-25T09:54:24;12.75;;;6.13;;
39188;SDS011;24915;50.858;4.376;2023-04-25T09:56:52;18.30;;;4.03;;
39188;SDS011;24915;50.858;4.376;2023-04-25T09:59:21;15.60;;;3.40;;
39188;SDS011;24915;50.858;4.376;2023-04-25T10:01:48;15.05;;;3.13;;
39188;SDS011;24915;50.858;4.376;2023-04-25T10:04:22;14.65;;;3.47;;
39188;SDS011;24915;50.858;4.376;2023-04-25T10:06:49;10.90;;;3.30;;
39188;SDS011;24915;50.858;4.376;2023-04-25T10:09:15;11.05;;;3.63;;
39188;SDS011;24915;50.858;4.376;2023-04-25T10:11:43;7.47;;;2.65;;
39188;SDS011;24915;50.858;4.376;2023-04-25T10:14:10;10.85;;;2.20;;
39188;SDS011;24915;50.858;4.376;2023-04-25T10:16:36;7.57;;;2.08;;
39188;SDS011;24915;50.858;4.376;2023-04-25T10:19:03;6.32;;;2.13;;
39188;SDS011;24915;50.858;4.376;2023-04-25T10:21:29;7.22;;;2.40;;
39188;SDS011;24915;50.858;4.376;2023-04-25T10:23:57;10.38;;;2.45;;
39188;SDS011;24915;50.858;4.376;2023-04-25T10:26:23;9.20;;;2.58;;
39188;SDS011;24915;50.858;4.376;2023-04-25T10:29:05;9.02;;;2.58;;
39188;SDS011;24915;50.858;4.376;2023-04-25T10:31:34;7.30;;;2.00;;
39188;SDS011;24915;50.858;4.376;2023-04-25T10:34:10;6.20;;;2.50;;
39188;SDS011;24915;50.858;4.376;2023-04-25T10:36:36;14.60;;;4.20;;
39188;SDS011;24915;50.858;4.376;2023-04-25T10:39:06;6.97;;;2.40;;
39188;SDS011;24915;50.858;4.376;2023-04-25T10:41:55;10.65;;;2.38;;
39188;SDS011;24915;50.858;4.376;2023-04-25T10:44:20;10.30;;;3.38;;
39188;SDS011;24915;50.858;4.376;2023-04-25T10:46:46;12.50;;;3.88;;
39188;SDS011;24915;50.858;4.376;2023-04-25T10:49:27;9.18;;;2.90;;
39188;SDS011;24915;50.858;4.376;2023-04-25T10:52:10;14.13;;;2.95;;
39188;SDS011;24915;50.858;4.376;2023-04-25T10:54:45;13.38;;;2.72;;
39188;SDS011;24915;50.858;4.376;2023-04-25T10:57:28;9.82;;;2.22;;
39188;SDS011;24915;50.858;4.376;2023-04-25T10:59:57;6.47;;;2.80;;
39188;SDS011;24915;50.858;4.376;2023-04-25T11:02:25;13.45;;;3.33;;
39188;SDS011;24915;50.858;4.376;2023-04-25T11:04:53;9.38;;;2.17;;
39188;SDS011;24915;50.858;4.376;2023-04-25T11:07:39;14.15;;;3.80;;
39188;SDS011;24915;50.858;4.376;2023-04-25T11:10:10;16.08;;;4.05;;
39188;SDS011;24915;50.858;4.376;2023-04-25T11:12:36;12.95;;;3.15;;
39188;SDS011;24915;50.858;4.376;2023-04-25T11:15:03;7.30;;;2.85;;
39188;SDS011;24915;50.858;4.376;2023-04-25T11:17:30;9.73;;;2.38;;
39188;SDS011;24915;50.858;4.376;2023-04-25T11:19:56;9.43;;;2.30;;
39188;SDS011;24915;50.858;4.376;2023-04-25T11:22:22;8.30;;;2.97;;
39188;SDS011;24915;50.858;4.376;2023-04-25T11:24:48;8.82;;;3.05;;
39188;SDS011;24915;50.858;4.376;2023-04-25T11:27:15;8.32;;;2.58;;
39188;SDS011;24915;50.858;4.376;2023-04-25T11:29:42;13.98;;;2.53;;
39188;SDS011;24915;50.858;4.376;2023-04-25T11:32:08;8.93;;;2.50;;
39188;SDS011;24915;50.858;4.376;2023-04-25T11:34:34;7.25;;;2.17;;
39188;SDS011;24915;50.858;4.376;2023-04-25T11:37:00;12.05;;;2.92;;
39188;SDS011;24915;50.858;4.376;2023-04-25T11:39:27;11.90;;;2.78;;
39188;SDS011;24915;50.858;4.376;2023-04-25T11:41:53;11.68;;;2.60;;
39188;SDS011;24915;50.858;4.376;2023-04-25T11:44:20;11.35;;;2.20;;
39188;SDS011;24915;50.858;4.376;2023-04-25T11:46:47;5.55;;;2.45;;
39188;SDS011;24915;50.858;4.376;2023-04-25T11:49:13;8.20;;;2.38;;
39188;SDS011;24915;50.858;4.376;2023-04-25T11:51:40;7.40;;;2.30;;
39188;SDS011;24915;50.858;4.376;2023-04-25T11:54:06;9.48;;;2.50;;
39188;SDS011;24915;50.858;4.376;2023-04-25T11:56:33;13.38;;;3.28;;
39188;SDS011;24915;50.858;4.376;2023-04-25T12:01:26;11.18;;;4.03;;
39188;SDS011;24915;50.858;4.376;2023-04-25T12:03:52;9.00;;;2.47;;
39188;SDS011;24915;50.858;4.376;2023-04-25T12:06:19;9.63;;;2.50;;
39188;SDS011;24915;50.858;4.376;2023-04-25T12:09:03;5.10;;;2.30;;
39188;SDS011;24915;50.858;4.376;2023-04-25T12:11:30;9.95;;;2.10;;
39188;SDS011;24915;50.858;4.376;2023-04-25T12:14:03;7.90;;;2.40;;
39188;SDS011;24915;50.858;4.376;2023-04-25T12:16:39;9.48;;;2.15;;
39188;SDS011;24915;50.858;4.376;2023-04-25T12:19:05;9.95;;;1.75;;
39188;SDS011;24915;50.858;4.376;2023-04-25T12:21:32;4.70;;;1.55;;
39188;SDS011;24915;50.858;4.376;2023-04-25T12:29:29;9.85;;;2.08;;
39188;SDS011;24915;50.858;4.376;2023-04-25T12:31:56;5.82;;;1.77;;
39188;SDS011;24915;50.858;4.376;2023-04-25T12:34:23;5.97;;;1.55;;
39188;SDS011;24915;50.858;4.376;2023-04-25T12:36:50;7.90;;;1.50;;
39188;SDS011;24915;50.858;4.376;2023-04-25T12:41:43;9.68;;;1.80;;
39188;SDS011;24915;50.858;4.376;2023-04-25T12:44:09;4.82;;;2.00;;
39188;SDS011;24915;50.858;4.376;2023-04-25T12:46:36;5.18;;;1.52;;
39188;SDS011;24915;50.858;4.376;2023-04-25T12:49:02;7.55;;;1.92;;
39188;SDS011;24915;50.858;4.376;2023-04-25T12:51:29;4.22;;;1.80;;
39188;SDS011;24915;50.858;4.376;2023-04-25T12:53:55;7.05;;;2.28;;
39188;SDS011;24915;50.858;4.376;2023-04-25T12:56:21;4.88;;;1.70;;
39188;SDS011;24915;50.858;4.376;2023-04-25T12:58:47;7.38;;;2.38;;
39188;SDS011;24915;50.858;4.376;2023-04-25T13:01:14;6.15;;;2.08;;
39188;SDS011;24915;50.858;4.376;2023-04-25T13:03:40;7.63;;;2.40;;
39188;SDS011;24915;50.858;4.376;2023-04-25T13:06:06;7.63;;;2.13;;
39188;SDS011;24915;50.858;4.376;2023-04-25T13:08:32;6.50;;;2.20;;
39188;SDS011;24915;50.858;4.376;2023-04-25T13:11:00;5.80;;;1.75;;
39188;SDS011;24915;50.858;4.376;2023-04-25T13:13:26;7.72;;;1.85;;
39188;SDS011;24915;50.858;4.376;2023-04-25T13:15:52;5.40;;;2.00;;
39188;SDS011;24915;50.858;4.376;2023-04-25T13:18:18;4.45;;;2.05;;
39188;SDS011;24915;50.858;4.376;2023-04-25T13:20:44;6.35;;;2.00;;
39188;SDS011;24915;50.858;4.376;2023-04-25T13:23:11;7.72;;;2.47;;
39188;SDS011;24915;50.858;4.376;2023-04-25T13:25:37;6.95;;;2.15;;
39188;SDS011;24915;50.858;4.376;2023-04-25T13:28:03;6.53;;;2.00;;
39188;SDS011;24915;50.858;4.376;2023-04-25T13:30:29;7.45;;;2.00;;
39188;SDS011;24915;50.858;4.376;2023-04-25T13:32:55;8.82;;;2.17;;
39188;SDS011;24915;50.858;4.376;2023-04-25T13:35:22;8.43;;;2.20;;
39188;SDS011;24915;50.858;4.376;2023-04-25T13:37:48;4.80;;;2.08;;
39188;SDS011;24915;50.858;4.376;2023-04-25T13:40:15;9.43;;;2.92;;
39188;SDS011;24915;50.858;4.376;2023-04-25T13:42:42;7.90;;;2.22;;
39188;SDS011;24915;50.858;4.376;2023-04-25T13:45:10;3.88;;;1.80;;
39188;SDS011;24915;50.858;4.376;2023-04-25T13:47:36;8.50;;;1.60;;
39188;SDS011;24915;50.858;4.376;2023-04-25T13:50:03;4.05;;;1.60;;
39188;SDS011;24915;50.858;4.376;2023-04-25T13:52:30;8.32;;;2.47;;
39188;SDS011;24915;50.858;4.376;2023-04-25T13:54:56;9.50;;;2.17;;
39188;SDS011;24915;50.858;4.376;2023-04-25T13:57:23;6.57;;;2.28;;
39188;SDS011;24915;50.858;4.376;2023-04-25T13:59:49;8.75;;;2.03;;
39188;SDS011;24915;50.858;4.376;2023-04-25T14:02:16;5.22;;;2.00;;
39188;SDS011;24915;50.858;4.376;2023-04-25T14:04:42;6.93;;;2.22;;
39188;SDS011;24915;50.858;4.376;2023-04-25T14:07:08;12.23;;;2.92;;
39188;SDS011;24915;50.858;4.376;2023-04-25T14:09:36;11.25;;;3.00;;
39188;SDS011;24915;50.858;4.376;2023-04-25T14:12:02;5.32;;;1.85;;
39188;SDS011;24915;50.858;4.376;2023-04-25T14:14:28;9.13;;;3.10;;
39188;SDS011;24915;50.858;4.376;2023-04-25T14:16:54;14.30;;;3.97;;
39188;SDS011;24915;50.858;4.376;2023-04-25T14:19:21;8.98;;;4.20;;
39188;SDS011;24915;50.858;4.376;2023-04-25T14:21:48;9.65;;;4.22;;
39188;SDS011;24915;50.858;4.376;2023-04-25T14:24:14;8.77;;;3.70;;
39188;SDS011;24915;50.858;4.376;2023-04-25T14:26:41;6.35;;;2.90;;
39188;SDS011;24915;50.858;4.376;2023-04-25T14:29:07;5.47;;;1.60;;
39188;SDS011;24915;50.858;4.376;2023-04-25T14:31:34;4.53;;;1.80;;
39188;SDS011;24915;50.858;4.376;2023-04-25T14:34:00;5.00;;;1.90;;
39188;SDS011;24915;50.858;4.376;2023-04-25T14:36:27;6.70;;;2.08;;
39188;SDS011;24915;50.858;4.376;2023-04-25T14:38:54;3.95;;;1.60;;
39188;SDS011;24915;50.858;4.376;2023-04-25T14:41:20;6.00;;;2.03;;
39188;SDS011;24915;50.858;4.376;2023-04-25T14:43:46;5.63;;;2.03;;
39188;SDS011;24915;50.858;4.376;2023-04-25T14:46:12;7.45;;;2.78;;
39188;SDS011;24915;50.858;4.376;2023-04-25T14:48:38;10.48;;;2.58;;
39188;SDS011;24915;50.858;4.376;2023-04-25T14:51:05;9.43;;;2.70;;